Time,TemperatureF,DewpointF,PressureIn,WindDirection,WindDirectionDegrees,WindSpeedMPH,WindSpeedGustMPH,Humidity,HourlyPrecipIn,Conditions,Clouds,dailyrainin,SolarRadiationWatts/m^2,SoftwareType,DateUTC
2013-02-08 00:00:00,37.3,34.9,29.92,NW,304,0.0,0.0,91,0.00,,,0.17,0,WeatherCatV1.12B45,2013-02-08 08:00:00,
2013-02-08 00:05:00,37.3,34.9,29.92,NW,304,0.0,0.0,91,0.00,,,0.00,0,WeatherCatV1.12B45,2013-02-08 08:05:00,
2013-02-08 00:10:00,37.0,34.6,29.92,NW,304,0.0,0.0,91,0.00,,,0.00,0,WeatherCatV1.12B45,2013-02-08 08:10:00,
2013-02-08 00:15:00,36.9,34.5,29.91,NW,304,0.0,0.0,91,0.00,,,0.00,0,WeatherCatV1.12B45,2013-02-08 08:15:00,
2013-02-08 00:20:00,36.9,34.5,29.91,NW,304,0.0,0.0,91,0.00,,,0.00,0,WeatherCatV1.12B45,2013-02-08 08:20:00,
2013-02-08 00:25:00,36.8,34.4,29.91,NW,305,0.0,0.0,91,0.00,,,0.00,0,WeatherCatV1.12B45,2013-02-08 08:25:00,
2013-02-08 00:30:00,36.6,34.2,29.91,NW,304,0.0,0.0,91,0.00,,,0.00,0,WeatherCatV1.12B45,2013-02-08 08:30:00,
2013-02-08 00:35:00,36.6,34.2,29.91,NW,304,0.0,0.0,91,0.00,,,0.00,0,WeatherCatV1.12B45,2013-02-08 08:35:00,
2013-02-08 00:40:00,36.6,34.2,29.91,NW,304,0.0,0.0,91,0.00,,,0.00,0,WeatherCatV1.12B45,2013-02-08 08:40:00,
2013-02-08 00:45:00,36.5,34.1,29.90,NW,304,0.0,0.0,91,0.00,,,0.00,0,WeatherCatV1.12B45,2013-02-08 08:45:00,
2013-02-08 00:50:00,36.6,34.2,29.90,NW,304,0.0,0.0,91,0.00,,,0.00,0,WeatherCatV1.12B45,2013-02-08 08:50:00,
2013-02-08 00:55:00,36.8,34.7,29.90,NW,304,0.0,0.0,92,0.00,,,0.00,0,WeatherCatV1.12B45,2013-02-08 08:55:00,
2013-02-08 01:00:00,36.9,34.8,29.90,WNW,295,0.0,0.0,92,0.00,,,0.00,0,WeatherCatV1.12B45,2013-02-08 09:00:00,
2013-02-08 01:05:00,37.0,34.9,29.90,NW,304,0.0,0.0,92,0.00,,,0.00,0,WeatherCatV1.12B45,2013-02-08 09:05:00,
2013-02-08 01:10:00,37.2,35.1,29.90,NW,304,0.0,0.0,92,0.00,,,0.00,0,WeatherCatV1.12B45,2013-02-08 09:10:00,
2013-02-08 01:15:00,37.5,35.7,29.90,NW,304,0.0,0.0,93,0.00,,,0.00,0,WeatherCatV1.12B45,2013-02-08 09:15:00,
2013-02-08 01:20:00,37.8,36.0,29.90,NW,304,0.0,0.0,93,0.00,,,0.00,0,WeatherCatV1.12B45,2013-02-08 09:20:00,
2013-02-08 01:25:00,38.0,36.2,29.90,NW,304,0.0,0.0,93,0.00,,,0.00,0,WeatherCatV1.12B45,2013-02-08 09:25:00,
2013-02-08 01:30:00,38.9,37.1,29.89,WSW,237,0.0,0.0,93,0.00,,,0.01,0,WeatherCatV1.12B45,2013-02-08 09:30:00,
2013-02-08 01:35:00,39.1,37.2,29.89,WSW,237,0.0,0.0,93,0.13,,,0.02,0,WeatherCatV1.12B45,2013-02-08 09:35:00,
2013-02-08 01:40:00,39.2,37.3,29.89,WSW,237,0.0,0.0,93,0.07,,,0.02,0,WeatherCatV1.12B45,2013-02-08 09:40:00,
2013-02-08 01:45:00,39.6,37.7,29.89,SW,236,0.0,0.0,93,0.04,,,0.02,0,WeatherCatV1.12B45,2013-02-08 09:45:00,
2013-02-08 01:50:00,39.9,38.0,29.89,WSW,237,0.0,1.0,93,0.04,,,0.03,0,WeatherCatV1.12B45,2013-02-08 09:50:00,
2013-02-08 01:55:00,40.1,38.2,29.89,WSW,237,0.0,0.0,93,0.08,,,0.04,0,WeatherCatV1.12B45,2013-02-08 09:55:00,
2013-02-08 02:00:00,40.5,38.9,29.88,WSW,237,0.0,0.0,94,0.08,,,0.05,0,WeatherCatV1.12B45,2013-02-08 10:00:00,
2013-02-08 02:05:00,40.6,38.7,29.88,WSW,239,0.0,0.0,93,0.09,,,0.05,0,WeatherCatV1.12B45,2013-02-08 10:05:00,
2013-02-08 02:10:00,40.8,39.2,29.88,WSW,257,0.0,0.0,94,0.06,,,0.05,0,WeatherCatV1.12B45,2013-02-08 10:10:00,
2013-02-08 02:15:00,40.9,39.3,29.88,West,264,0.0,0.0,94,0.04,,,0.05,0,WeatherCatV1.12B45,2013-02-08 10:15:00,
2013-02-08 02:20:00,41.1,39.5,29.88,West,263,0.0,0.0,94,0.00,,,0.05,0,WeatherCatV1.12B45,2013-02-08 10:20:00,
2013-02-08 02:25:00,41.1,39.5,29.88,WSW,257,0.0,0.0,94,0.00,,,0.05,0,WeatherCatV1.12B45,2013-02-08 10:25:00,
2013-02-08 02:30:00,41.2,39.3,29.88,West,264,0.0,0.0,93,0.00,,,0.05,0,WeatherCatV1.12B45,2013-02-08 10:30:00,
2013-02-08 02:35:00,41.2,39.3,29.88,WSW,256,0.0,0.0,93,0.00,,,0.05,0,WeatherCatV1.12B45,2013-02-08 10:35:00,
2013-02-08 02:40:00,41.2,39.3,29.88,WSW,240,0.0,0.0,93,0.00,,,0.05,0,WeatherCatV1.12B45,2013-02-08 10:40:00,
2013-02-08 02:45:00,41.2,39.3,29.87,WSW,253,0.0,0.0,93,0.00,,,0.05,0,WeatherCatV1.12B45,2013-02-08 10:45:00,
2013-02-08 02:50:00,41.2,39.3,29.87,WSW,239,0.0,0.0,93,0.00,,,0.05,0,WeatherCatV1.12B45,2013-02-08 10:50:00,
2013-02-08 02:55:00,41.2,39.3,29.87,WSW,237,0.0,0.0,93,0.00,,,0.05,0,WeatherCatV1.12B45,2013-02-08 10:55:00,
2013-02-08 03:00:00,41.2,39.3,29.87,WSW,239,0.0,0.0,93,0.00,,,0.05,0,WeatherCatV1.12B45,2013-02-08 11:00:00,
2013-02-08 03:05:00,41.2,39.3,29.87,WSW,239,0.0,0.0,93,0.00,,,0.05,0,WeatherCatV1.12B45,2013-02-08 11:05:00,
2013-02-08 03:10:00,41.1,39.2,29.87,WSW,237,0.0,0.0,93,0.00,,,0.05,0,WeatherCatV1.12B45,2013-02-08 11:10:00,
2013-02-08 03:15:00,41.1,39.2,29.87,WSW,237,0.0,0.0,93,0.00,,,0.05,0,WeatherCatV1.12B45,2013-02-08 11:15:00,
2013-02-08 03:20:00,41.1,39.2,29.87,WSW,237,0.0,0.0,93,0.00,,,0.05,0,WeatherCatV1.12B45,2013-02-08 11:20:00,
2013-02-08 03:25:00,41.1,39.2,29.87,WSW,239,0.0,0.0,93,0.00,,,0.05,0,WeatherCatV1.12B45,2013-02-08 11:25:00,
2013-02-08 03:30:00,40.9,39.0,29.86,SW,217,0.0,0.0,93,0.00,,,0.05,0,WeatherCatV1.12B45,2013-02-08 11:30:00,
2013-02-08 03:35:00,40.9,39.0,29.86,WSW,247,0.0,0.0,93,0.00,,,0.05,0,WeatherCatV1.12B45,2013-02-08 11:35:00,
2013-02-08 03:40:00,40.8,38.9,29.86,WSW,246,0.0,0.0,93,0.00,,,0.05,0,WeatherCatV1.12B45,2013-02-08 11:40:00,
2013-02-08 03:45:00,40.8,38.9,29.86,WSW,243,0.0,0.0,93,0.00,,,0.05,0,WeatherCatV1.12B45,2013-02-08 11:45:00,
2013-02-08 03:50:00,40.6,38.7,29.86,WSW,240,0.0,0.0,93,0.00,,,0.05,0,WeatherCatV1.12B45,2013-02-08 11:50:00,
2013-02-08 03:55:00,40.5,38.6,29.86,WSW,239,0.0,0.0,93,0.00,,,0.05,0,WeatherCatV1.12B45,2013-02-08 11:55:00,
2013-02-08 04:00:00,40.3,38.4,29.86,WSW,237,0.0,0.0,93,0.00,,,0.05,0,WeatherCatV1.12B45,2013-02-08 12:00:00,
2013-02-08 04:05:00,40.1,38.2,29.86,WSW,237,0.0,0.0,93,0.00,,,0.05,0,WeatherCatV1.12B45,2013-02-08 12:05:00,
2013-02-08 04:10:00,39.9,38.0,29.86,WSW,237,0.0,0.0,93,0.00,,,0.05,0,WeatherCatV1.12B45,2013-02-08 12:10:00,
2013-02-08 04:15:00,39.8,37.9,29.86,WSW,237,0.0,0.0,93,0.00,,,0.05,0,WeatherCatV1.12B45,2013-02-08 12:15:00,
2013-02-08 04:20:00,39.5,37.6,29.86,WSW,237,0.0,0.0,93,0.00,,,0.05,0,WeatherCatV1.12B45,2013-02-08 12:20:00,
2013-02-08 04:25:00,39.3,37.4,29.86,WSW,237,0.0,0.0,93,0.00,,,0.05,0,WeatherCatV1.12B45,2013-02-08 12:25:00,
2013-02-08 04:30:00,39.1,37.2,29.87,WSW,237,0.0,0.0,93,0.00,,,0.05,0,WeatherCatV1.12B45,2013-02-08 12:30:00,
2013-02-08 04:35:00,38.9,37.1,29.87,WSW,237,0.0,0.0,93,0.00,,,0.05,0,WeatherCatV1.12B45,2013-02-08 12:35:00,
2013-02-08 04:40:00,38.6,36.8,29.87,WSW,237,0.0,0.0,93,0.00,,,0.05,0,WeatherCatV1.12B45,2013-02-08 12:40:00,
2013-02-08 04:45:00,38.5,36.7,29.87,WSW,237,0.0,0.0,93,0.00,,,0.05,0,WeatherCatV1.12B45,2013-02-08 12:45:00,
2013-02-08 04:50:00,38.2,36.4,29.87,WSW,237,0.0,0.0,93,0.00,,,0.05,0,WeatherCatV1.12B45,2013-02-08 12:50:00,
2013-02-08 04:55:00,38.0,36.2,29.87,WSW,237,0.0,0.0,93,0.00,,,0.05,0,WeatherCatV1.12B45,2013-02-08 12:55:00,
2013-02-08 05:00:00,37.9,36.1,29.87,WSW,237,0.0,0.0,93,0.00,,,0.05,0,WeatherCatV1.12B45,2013-02-08 13:00:00,
2013-02-08 05:05:00,37.8,36.0,29.87,WSW,237,0.0,0.0,93,0.00,,,0.05,0,WeatherCatV1.12B45,2013-02-08 13:05:00,
2013-02-08 05:10:00,37.6,35.8,29.87,WSW,237,0.0,0.0,93,0.00,,,0.05,0,WeatherCatV1.12B45,2013-02-08 13:10:00,
2013-02-08 05:15:00,37.5,35.7,29.87,WSW,237,0.0,0.0,93,0.00,,,0.05,0,WeatherCatV1.12B45,2013-02-08 13:15:00,
2013-02-08 05:20:00,37.3,35.5,29.87,WSW,239,0.0,0.0,93,0.00,,,0.05,0,WeatherCatV1.12B45,2013-02-08 13:20:00,
2013-02-08 05:25:00,37.2,35.4,29.87,WSW,240,0.0,0.0,93,0.00,,,0.05,0,WeatherCatV1.12B45,2013-02-08 13:25:00,
2013-02-08 05:30:00,37.0,35.2,29.87,WSW,241,0.0,0.0,93,0.00,,,0.05,0,WeatherCatV1.12B45,2013-02-08 13:30:00,
2013-02-08 05:35:00,36.9,35.1,29.87,WSW,253,0.0,0.0,93,0.00,,,0.05,0,WeatherCatV1.12B45,2013-02-08 13:35:00,
2013-02-08 05:40:00,36.9,35.1,29.87,WSW,240,0.0,0.0,93,0.00,,,0.05,0,WeatherCatV1.12B45,2013-02-08 13:40:00,
2013-02-08 05:45:00,36.8,35.0,29.88,WSW,241,0.0,0.0,93,0.00,,,0.05,0,WeatherCatV1.12B45,2013-02-08 13:45:00,
2013-02-08 05:50:00,36.6,34.8,29.88,WSW,241,0.0,0.0,93,0.00,,,0.05,0,WeatherCatV1.12B45,2013-02-08 13:50:00,
2013-02-08 05:55:00,36.6,34.8,29.88,WSW,237,0.0,0.0,93,0.00,,,0.05,0,WeatherCatV1.12B45,2013-02-08 13:55:00,
2013-02-08 06:00:00,36.5,34.7,29.88,WSW,237,0.0,0.0,93,0.00,,,0.05,0,WeatherCatV1.12B45,2013-02-08 14:00:00,
2013-02-08 06:05:00,36.5,34.7,29.88,WSW,240,0.0,0.0,93,0.00,,,0.05,0,WeatherCatV1.12B45,2013-02-08 14:05:00,
2013-02-08 06:10:00,36.3,34.5,29.88,WSW,237,0.0,0.0,93,0.00,,,0.05,0,WeatherCatV1.12B45,2013-02-08 14:10:00,
2013-02-08 06:15:00,36.2,34.4,29.88,WSW,239,0.0,0.0,93,0.00,,,0.05,0,WeatherCatV1.12B45,2013-02-08 14:15:00,
2013-02-08 06:20:00,36.2,34.4,29.88,WSW,237,0.0,0.0,93,0.00,,,0.05,0,WeatherCatV1.12B45,2013-02-08 14:20:00,
2013-02-08 06:25:00,35.9,34.1,29.88,WSW,237,0.0,0.0,93,0.00,,,0.05,0,WeatherCatV1.12B45,2013-02-08 14:25:00,
2013-02-08 06:30:00,35.9,34.1,29.89,WSW,239,0.0,0.0,93,0.00,,,0.05,0,WeatherCatV1.12B45,2013-02-08 14:30:00,
2013-02-08 06:35:00,35.8,34.0,29.89,WSW,239,0.0,0.0,93,0.00,,,0.06,0,WeatherCatV1.12B45,2013-02-08 14:35:00,
2013-02-08 06:40:00,35.6,33.8,29.89,WSW,239,0.0,0.0,93,0.00,,,0.06,0,WeatherCatV1.12B45,2013-02-08 14:40:00,
2013-02-08 06:45:00,35.5,33.7,29.89,West,275,0.0,0.0,93,0.00,,,0.06,0,WeatherCatV1.12B45,2013-02-08 14:45:00,
2013-02-08 06:50:00,35.5,33.7,29.89,WSW,237,0.0,0.0,93,0.00,,,0.06,0,WeatherCatV1.12B45,2013-02-08 14:50:00,
2013-02-08 06:55:00,35.3,33.5,29.89,WSW,239,0.0,0.0,93,0.00,,,0.06,0,WeatherCatV1.12B45,2013-02-08 14:55:00,
2013-02-08 07:00:00,35.3,33.5,29.90,WSW,239,0.0,0.0,93,0.00,,,0.06,0,WeatherCatV1.12B45,2013-02-08 15:00:00,
2013-02-08 07:05:00,35.2,33.4,29.90,WSW,239,0.0,0.0,93,0.00,,,0.06,0,WeatherCatV1.12B45,2013-02-08 15:05:00,
2013-02-08 07:10:00,35.0,33.2,29.90,WSW,240,0.0,0.0,93,0.00,,,0.06,0,WeatherCatV1.12B45,2013-02-08 15:10:00,
2013-02-08 07:15:00,35.0,33.2,29.90,WSW,239,0.0,0.0,93,0.00,,,0.06,0,WeatherCatV1.12B45,2013-02-08 15:15:00,
2013-02-08 07:20:00,34.9,33.1,29.90,WSW,239,0.0,0.0,93,0.00,,,0.06,0,WeatherCatV1.12B45,2013-02-08 15:20:00,
2013-02-08 07:25:00,34.9,33.4,29.90,WSW,239,0.0,0.0,94,0.00,,,0.06,9,WeatherCatV1.12B45,2013-02-08 15:25:00,
2013-02-08 07:30:00,34.9,33.1,29.90,WSW,239,0.0,0.0,93,0.00,,,0.06,9,WeatherCatV1.12B45,2013-02-08 15:30:00,
2013-02-08 07:35:00,34.9,33.4,29.90,WSW,239,0.0,0.0,94,0.00,,,0.06,12,WeatherCatV1.12B45,2013-02-08 15:35:00,
2013-02-08 07:40:00,34.9,33.4,29.90,WSW,239,0.0,0.0,94,0.00,,,0.06,18,WeatherCatV1.12B45,2013-02-08 15:40:00,
2013-02-08 07:45:00,34.9,33.4,29.91,WSW,239,0.0,0.0,94,0.00,,,0.06,18,WeatherCatV1.12B45,2013-02-08 15:45:00,
2013-02-08 07:50:00,34.9,33.4,29.91,WSW,239,0.0,0.0,94,0.00,,,0.06,18,WeatherCatV1.12B45,2013-02-08 15:50:00,
2013-02-08 07:55:00,35.0,33.5,29.91,WSW,239,0.0,0.0,94,0.00,,,0.06,26,WeatherCatV1.12B45,2013-02-08 15:55:00,
2013-02-08 08:00:00,35.2,33.6,29.91,WSW,237,0.0,0.0,94,0.00,,,0.06,26,WeatherCatV1.12B45,2013-02-08 16:00:00,
2013-02-08 08:05:00,35.5,33.9,29.91,SW,224,0.0,0.0,94,0.00,,,0.06,21,WeatherCatV1.12B45,2013-02-08 16:05:00,
2013-02-08 08:10:00,35.8,34.2,29.91,WSW,237,0.0,0.0,94,0.00,,,0.06,21,WeatherCatV1.12B45,2013-02-08 16:10:00,
2013-02-08 08:15:00,36.0,34.4,29.92,WSW,237,0.0,0.0,94,0.00,,,0.06,25,WeatherCatV1.12B45,2013-02-08 16:15:00,
2013-02-08 08:20:00,36.3,34.7,29.92,WSW,237,0.0,0.0,94,0.00,,,0.06,25,WeatherCatV1.12B45,2013-02-08 16:20:00,
2013-02-08 08:25:00,36.6,35.0,29.92,WSW,237,0.0,0.0,94,0.00,,,0.06,25,WeatherCatV1.12B45,2013-02-08 16:25:00,
2013-02-08 08:30:00,36.9,35.3,29.92,WSW,237,0.0,0.0,94,0.00,,,0.06,25,WeatherCatV1.12B45,2013-02-08 16:30:00,
2013-02-08 08:35:00,37.5,35.9,29.92,WNW,302,0.0,0.0,94,0.00,,,0.06,259,WeatherCatV1.12B45,2013-02-08 16:35:00,
2013-02-08 08:40:00,38.9,37.6,29.92,NNW,329,0.0,0.0,95,0.00,,,0.06,271,WeatherCatV1.12B45,2013-02-08 16:40:00,
2013-02-08 08:45:00,39.8,38.5,29.92,NNW,332,0.0,0.0,95,0.00,,,0.06,282,WeatherCatV1.12B45,2013-02-08 16:45:00,
2013-02-08 08:50:00,40.8,39.5,29.92,NNW,335,0.0,0.0,95,0.00,,,0.06,278,WeatherCatV1.12B45,2013-02-08 16:50:00,
2013-02-08 08:55:00,41.5,40.2,29.92,NW,306,0.0,0.0,95,0.00,,,0.06,313,WeatherCatV1.12B45,2013-02-08 16:55:00,
2013-02-08 09:00:00,42.5,41.2,29.92,NNW,337,0.0,0.0,95,0.00,,,0.06,329,WeatherCatV1.12B45,2013-02-08 17:00:00,
2013-02-08 09:05:00,43.1,41.8,29.92,North,349,0.0,0.0,95,0.00,,,0.06,329,WeatherCatV1.12B45,2013-02-08 17:05:00,
2013-02-08 09:10:00,43.5,42.2,29.92,SW,219,0.0,0.0,95,0.00,,,0.06,378,WeatherCatV1.12B45,2013-02-08 17:10:00,
2013-02-08 09:15:00,44.1,42.5,29.93,North,350,0.0,0.0,94,0.00,,,0.06,378,WeatherCatV1.12B45,2013-02-08 17:15:00,
2013-02-08 09:20:00,44.5,42.9,29.93,WSW,246,0.0,2.0,94,0.00,,,0.06,406,WeatherCatV1.12B45,2013-02-08 17:20:00,
2013-02-08 09:25:00,44.8,42.9,29.93,SW,219,2.0,2.0,93,0.00,,,0.06,410,WeatherCatV1.12B45,2013-02-08 17:25:00,
2013-02-08 09:30:00,45.4,43.5,29.93,SSW,210,0.0,3.0,93,0.00,,,0.06,412,WeatherCatV1.12B45,2013-02-08 17:30:00,
2013-02-08 09:35:00,46.0,43.8,29.93,SSW,206,0.0,0.0,92,0.00,,,0.06,431,WeatherCatV1.12B45,2013-02-08 17:35:00,
2013-02-08 09:40:00,46.2,43.1,29.93,SSW,198,0.0,2.0,89,0.00,,,0.06,447,WeatherCatV1.12B45,2013-02-08 17:40:00,
2013-02-08 09:45:00,46.8,42.8,29.93,North,354,0.0,5.0,86,0.00,,,0.06,456,WeatherCatV1.12B45,2013-02-08 17:45:00,
2013-02-08 09:50:00,47.6,42.7,29.93,North,353,1.0,5.0,83,0.00,,,0.06,473,WeatherCatV1.12B45,2013-02-08 17:50:00,
2013-02-08 09:55:00,48.2,42.3,29.93,North,354,1.0,2.0,80,0.00,,,0.06,487,WeatherCatV1.12B45,2013-02-08 17:55:00,
2013-02-08 10:00:00,48.8,42.9,29.93,WSW,239,0.0,3.0,80,0.00,,,0.06,496,WeatherCatV1.12B45,2013-02-08 18:00:00,
2013-02-08 10:05:00,49.2,42.0,29.93,South,179,0.0,1.0,76,0.00,,,0.06,505,WeatherCatV1.12B45,2013-02-08 18:05:00,
2013-02-08 10:10:00,49.6,41.3,29.93,North,357,0.0,1.0,73,0.00,,,0.06,517,WeatherCatV1.12B45,2013-02-08 18:10:00,
2013-02-08 10:15:00,50.2,41.2,29.93,WSW,239,1.0,5.0,71,0.00,,,0.06,531,WeatherCatV1.12B45,2013-02-08 18:15:00,
2013-02-08 10:20:00,50.4,41.4,29.93,SSW,209,3.0,3.0,71,0.00,,,0.06,531,WeatherCatV1.12B45,2013-02-08 18:20:00,
2013-02-08 10:25:00,50.4,40.2,29.93,SW,233,0.0,3.0,68,0.00,,,0.06,531,WeatherCatV1.12B45,2013-02-08 18:25:00,
2013-02-08 10:35:00,51.1,40.5,29.93,North,357,1.0,5.0,67,0.00,,,0.06,572,WeatherCatV1.12B45,2013-02-08 18:35:00,
2013-02-08 10:40:00,51.4,40.4,29.93,NNW,336,0.0,2.0,66,0.00,,,0.06,572,WeatherCatV1.12B45,2013-02-08 18:40:00,
2013-02-08 10:45:00,51.7,39.9,29.93,North,354,0.0,1.0,64,0.00,,,0.06,630,WeatherCatV1.12B45,2013-02-08 18:45:00,
2013-02-08 10:50:00,52.0,40.2,29.93,North,353,1.0,2.0,64,0.00,,,0.06,630,WeatherCatV1.12B45,2013-02-08 18:50:00,
2013-02-08 10:55:00,52.6,40.8,29.93,South,191,0.0,2.0,64,0.00,,,0.06,623,WeatherCatV1.12B45,2013-02-08 18:55:00,
2013-02-08 11:00:00,52.8,39.7,29.93,SSW,212,2.0,2.0,61,0.00,,,0.06,621,WeatherCatV1.12B45,2013-02-08 19:00:00,
2013-02-08 11:05:00,52.8,39.7,29.93,WSW,248,0.0,1.0,61,0.00,,,0.06,621,WeatherCatV1.12B45,2013-02-08 19:05:00,
2013-02-08 11:10:00,52.9,39.8,29.93,NNW,343,0.0,3.0,61,0.00,,,0.06,621,WeatherCatV1.12B45,2013-02-08 19:10:00,
2013-02-08 11:15:00,52.9,39.0,29.93,North,357,0.0,0.0,59,0.00,,,0.06,621,WeatherCatV1.12B45,2013-02-08 19:15:00,
2013-02-08 11:25:00,53.5,39.5,29.93,North,354,1.0,1.0,59,0.00,,,0.06,693,WeatherCatV1.12B45,2013-02-08 19:25:00,
2013-02-08 11:30:00,53.5,39.5,29.92,North,354,1.0,1.0,59,0.00,,,0.06,693,WeatherCatV1.12B45,2013-02-08 19:30:00,
2013-02-08 11:35:00,53.5,39.5,29.92,North,354,1.0,1.0,59,0.00,,,0.06,693,WeatherCatV1.12B45,2013-02-08 19:35:00,
2013-02-08 11:40:00,53.5,39.5,29.92,North,354,1.0,1.0,59,0.00,,,0.06,693,WeatherCatV1.12B45,2013-02-08 19:40:00,
2013-02-08 11:45:00,53.5,39.5,29.92,North,354,1.0,1.0,59,0.00,,,0.06,693,WeatherCatV1.12B45,2013-02-08 19:45:00,
2013-02-08 11:50:00,53.5,39.5,29.92,North,354,1.0,1.0,59,0.00,,,0.06,693,WeatherCatV1.12B45,2013-02-08 19:50:00,
2013-02-08 11:55:00,53.5,39.5,29.92,North,354,1.0,1.0,59,0.00,,,0.06,693,WeatherCatV1.12B45,2013-02-08 19:55:00,
2013-02-08 12:00:00,53.5,39.5,29.91,North,354,1.0,1.0,59,0.00,,,0.06,693,WeatherCatV1.12B45,2013-02-08 20:00:00,
2013-02-08 12:05:00,53.5,39.5,29.91,North,354,1.0,1.0,59,0.00,,,0.06,693,WeatherCatV1.12B45,2013-02-08 20:05:00,
2013-02-08 12:10:00,53.5,39.5,29.91,North,354,1.0,1.0,59,0.00,,,0.06,693,WeatherCatV1.12B45,2013-02-08 20:10:00,
2013-02-08 12:15:00,53.5,39.5,29.91,North,354,1.0,1.0,59,0.00,,,0.06,693,WeatherCatV1.12B45,2013-02-08 20:15:00,
2013-02-08 12:20:00,53.5,39.5,29.91,North,354,1.0,1.0,59,0.00,,,0.06,693,WeatherCatV1.12B45,2013-02-08 20:20:00,
2013-02-08 12:25:00,53.5,39.5,29.91,North,354,1.0,1.0,59,0.00,,,0.06,693,WeatherCatV1.12B45,2013-02-08 20:25:00,
2013-02-08 12:30:00,53.5,39.5,29.91,North,354,1.0,1.0,59,0.00,,,0.06,693,WeatherCatV1.12B45,2013-02-08 20:30:00,
2013-02-08 12:35:00,53.5,39.5,29.91,North,354,1.0,1.0,59,0.00,,,0.06,693,WeatherCatV1.12B45,2013-02-08 20:35:00,
2013-02-08 12:40:00,53.5,39.5,29.91,North,354,1.0,1.0,59,0.00,,,0.06,693,WeatherCatV1.12B45,2013-02-08 20:40:00,
2013-02-08 12:45:00,53.5,39.5,29.91,North,354,1.0,1.0,59,0.00,,,0.06,693,WeatherCatV1.12B45,2013-02-08 20:45:00,
2013-02-08 12:50:00,53.5,39.5,29.91,North,354,1.0,1.0,59,0.00,,,0.06,693,WeatherCatV1.12B45,2013-02-08 20:50:00,
2013-02-08 12:55:00,53.5,39.5,29.91,North,354,1.0,1.0,59,0.00,,,0.06,693,WeatherCatV1.12B45,2013-02-08 20:55:00,
2013-02-08 13:00:00,53.5,39.5,29.90,NW,311,2.0,2.0,59,0.00,,,0.06,693,WeatherCatV1.12B45,2013-02-08 21:00:00,
2013-02-08 13:10:00,55.7,41.6,29.90,NW,315,1.0,3.0,59,0.00,,,0.06,693,WeatherCatV1.12B45,2013-02-08 21:10:00,
2013-02-08 13:15:00,55.9,41.3,29.90,NNW,329,0.0,1.0,58,0.00,,,0.06,794,WeatherCatV1.12B45,2013-02-08 21:15:00,
2013-02-08 13:20:00,56.2,41.6,29.90,NW,323,0.0,1.0,58,0.00,,,0.06,794,WeatherCatV1.12B45,2013-02-08 21:20:00,
2013-02-08 13:25:00,56.2,41.6,29.90,WNW,301,1.0,1.0,58,0.00,,,0.06,794,WeatherCatV1.12B45,2013-02-08 21:25:00,
2013-02-08 13:30:00,56.2,40.7,29.90,NW,319,3.0,3.0,56,0.00,,,0.06,794,WeatherCatV1.12B45,2013-02-08 21:30:00,
2013-02-08 13:35:00,56.2,40.7,29.90,NW,319,3.0,3.0,56,0.00,,,0.06,794,WeatherCatV1.12B45,2013-02-08 21:35:00,
2013-02-08 13:40:00,56.2,40.7,29.90,NW,319,3.0,3.0,56,0.00,,,0.06,794,WeatherCatV1.12B45,2013-02-08 21:40:00,
2013-02-08 13:45:00,56.2,40.7,29.89,NW,319,3.0,3.0,56,0.00,,,0.06,794,WeatherCatV1.12B45,2013-02-08 21:45:00,
2013-02-08 13:50:00,56.2,40.7,29.89,NW,319,3.0,3.0,56,0.00,,,0.06,794,WeatherCatV1.12B45,2013-02-08 21:50:00,
2013-02-08 13:55:00,56.2,40.7,29.89,NW,319,3.0,3.0,56,0.00,,,0.06,794,WeatherCatV1.12B45,2013-02-08 21:55:00,
2013-02-08 14:00:00,58.1,41.1,29.88,North,349,5.0,5.0,53,0.00,,,0.06,794,WeatherCatV1.12B45,2013-02-08 22:00:00,
2013-02-08 14:05:00,57.5,40.5,29.88,North,353,2.0,2.0,53,0.00,,,0.06,794,WeatherCatV1.12B45,2013-02-08 22:05:00,
2013-02-08 14:10:00,57.6,40.6,29.88,NNW,343,1.0,3.0,53,0.00,,,0.06,794,WeatherCatV1.12B45,2013-02-08 22:10:00,
2013-02-08 14:15:00,57.8,40.8,29.88,NW,311,0.0,3.0,53,0.00,,,0.06,794,WeatherCatV1.12B45,2013-02-08 22:15:00,
2013-02-08 14:20:00,58.1,40.6,29.88,North,350,2.0,2.0,52,0.00,,,0.06,691,WeatherCatV1.12B45,2013-02-08 22:20:00,
2013-02-08 14:25:00,58.4,39.3,29.88,NNW,336,4.0,6.0,49,0.00,,,0.06,637,WeatherCatV1.12B45,2013-02-08 22:25:00,
2013-02-08 14:30:00,58.7,38.5,29.87,North,356,1.0,5.0,47,0.00,,,0.06,600,WeatherCatV1.12B45,2013-02-08 22:30:00,
2013-02-08 14:35:00,58.9,37.0,29.87,North,356,0.0,2.0,44,0.00,,,0.06,544,WeatherCatV1.12B45,2013-02-08 22:35:00,
2013-02-08 14:40:00,59.2,37.3,29.87,North,356,6.0,6.0,44,0.00,,,0.06,537,WeatherCatV1.12B45,2013-02-08 22:40:00,
2013-02-08 14:45:00,59.2,37.3,29.87,North,356,2.0,2.0,44,0.00,,,0.06,517,WeatherCatV1.12B45,2013-02-08 22:45:00,
2013-02-08 14:50:00,59.2,37.3,29.87,WSW,243,0.0,3.0,44,0.00,,,0.06,517,WeatherCatV1.12B45,2013-02-08 22:50:00,
2013-02-08 14:55:00,58.9,37.0,29.87,North,353,1.0,7.0,44,0.00,,,0.06,482,WeatherCatV1.12B45,2013-02-08 22:55:00,
2013-02-08 15:00:00,58.9,36.4,29.87,North,357,1.0,2.0,43,0.00,,,0.06,466,WeatherCatV1.12B45,2013-02-08 23:00:00,
2013-02-08 15:05:00,58.7,37.4,29.87,West,270,5.0,5.0,45,0.00,,,0.06,466,WeatherCatV1.12B45,2013-02-08 23:05:00,
2013-02-08 15:10:00,58.6,37.3,29.87,North,357,0.0,1.0,45,0.00,,,0.06,440,WeatherCatV1.12B45,2013-02-08 23:10:00,
2013-02-08 15:15:00,58.7,37.4,29.87,North,353,0.0,5.0,45,0.00,,,0.06,424,WeatherCatV1.12B45,2013-02-08 23:15:00,
2013-02-08 15:20:00,58.7,35.1,29.87,North,354,0.0,2.0,41,0.00,,,0.06,424,WeatherCatV1.12B45,2013-02-08 23:20:00,
2013-02-08 15:25:00,59.0,35.3,29.87,North,354,0.0,4.0,41,0.00,,,0.06,403,WeatherCatV1.12B45,2013-02-08 23:25:00,
2013-02-08 15:30:00,59.0,35.3,29.87,WNW,299,0.0,0.0,41,0.00,,,0.06,403,WeatherCatV1.12B45,2013-02-08 23:30:00,
2013-02-08 15:35:00,58.6,35.0,29.87,North,353,0.0,4.0,41,0.00,,,0.06,403,WeatherCatV1.12B45,2013-02-08 23:35:00,
2013-02-08 15:40:00,58.1,33.9,29.87,WNW,301,1.0,3.0,40,0.00,,,0.06,403,WeatherCatV1.12B45,2013-02-08 23:40:00,
2013-02-08 15:45:00,58.0,35.6,29.86,North,0,1.0,1.0,43,0.00,,,0.06,340,WeatherCatV1.12B45,2013-02-08 23:45:00,
2013-02-08 15:50:00,57.8,34.9,29.86,North,353,0.0,2.0,42,0.00,,,0.06,246,WeatherCatV1.12B45,2013-02-08 23:50:00,
2013-02-08 15:55:00,57.8,35.5,29.86,North,354,0.0,1.0,43,0.00,,,0.06,246,WeatherCatV1.12B45,2013-02-08 23:55:00,
2013-02-08 16:00:00,57.6,35.8,29.86,North,353,1.0,2.0,44,0.00,,,0.06,40,WeatherCatV1.12B45,2013-02-09 00:00:00,
2013-02-08 16:05:00,57.3,35.6,29.86,North,353,1.0,6.0,44,0.00,,,0.06,51,WeatherCatV1.12B45,2013-02-09 00:05:00,
2013-02-08 16:10:00,57.0,35.9,29.86,West,275,1.0,1.0,45,0.00,,,0.06,51,WeatherCatV1.12B45,2013-02-09 00:10:00,
2013-02-08 16:15:00,56.9,35.8,29.86,North,354,4.0,5.0,45,0.00,,,0.06,199,WeatherCatV1.12B45,2013-02-09 00:15:00,
2013-02-08 16:20:00,56.7,35.0,29.86,North,0,0.0,1.0,44,0.00,,,0.06,137,WeatherCatV1.12B45,2013-02-09 00:20:00,
2013-02-08 16:25:00,56.6,34.9,29.86,North,353,0.0,1.0,44,0.00,,,0.06,116,WeatherCatV1.12B45,2013-02-09 00:25:00,
2013-02-08 16:30:00,56.6,34.9,29.86,North,357,0.0,2.0,44,0.00,,,0.06,99,WeatherCatV1.12B45,2013-02-09 00:30:00,
2013-02-08 16:35:00,56.2,34.6,29.86,North,353,0.0,2.0,44,0.00,,,0.06,99,WeatherCatV1.12B45,2013-02-09 00:35:00,
2013-02-08 16:40:00,55.9,35.4,29.86,NNW,346,0.0,2.0,46,0.00,,,0.06,99,WeatherCatV1.12B45,2013-02-09 00:40:00,
2013-02-08 16:45:00,55.9,36.5,29.85,North,350,0.0,0.0,48,0.00,,,0.06,26,WeatherCatV1.12B45,2013-02-09 00:45:00,
2013-02-08 16:50:00,55.9,36.0,29.85,North,353,0.0,0.0,47,0.00,,,0.06,25,WeatherCatV1.12B45,2013-02-09 00:50:00,
2013-02-08 16:55:00,55.3,35.9,29.85,North,357,1.0,3.0,48,0.00,,,0.06,25,WeatherCatV1.12B45,2013-02-09 00:55:00,
2013-02-08 17:00:00,54.8,36.0,29.86,North,354,2.0,2.0,49,0.00,,,0.06,19,WeatherCatV1.12B45,2013-02-09 01:00:00,
2013-02-08 17:05:00,54.5,35.7,29.86,North,350,0.0,1.0,49,0.00,,,0.06,19,WeatherCatV1.12B45,2013-02-09 01:05:00,
2013-02-08 17:10:00,54.2,35.5,29.86,WNW,298,1.0,5.0,49,0.00,,,0.06,19,WeatherCatV1.12B45,2013-02-09 01:10:00,
2013-02-08 17:15:00,54.1,35.4,29.86,NNW,337,1.0,2.0,49,0.00,,,0.06,14,WeatherCatV1.12B45,2013-02-09 01:15:00,
2013-02-08 17:20:00,53.8,35.1,29.86,NNW,336,0.0,0.0,49,0.00,,,0.06,14,WeatherCatV1.12B45,2013-02-09 01:20:00,
2013-02-08 17:25:00,53.8,35.1,29.86,NNW,344,0.0,0.0,49,0.00,,,0.06,14,WeatherCatV1.12B45,2013-02-09 01:25:00,
2013-02-08 17:30:00,53.5,34.8,29.86,NNW,347,0.0,3.0,49,0.00,,,0.06,7,WeatherCatV1.12B45,2013-02-09 01:30:00,
2013-02-08 17:35:00,53.3,34.6,29.86,NNW,344,0.0,2.0,49,0.00,,,0.06,7,WeatherCatV1.12B45,2013-02-09 01:35:00,
2013-02-08 17:40:00,53.1,34.4,29.86,NNW,343,1.0,1.0,49,0.00,,,0.06,0,WeatherCatV1.12B45,2013-02-09 01:40:00,
2013-02-08 17:45:00,52.9,34.3,29.87,SSW,209,0.0,3.0,49,0.00,,,0.06,0,WeatherCatV1.12B45,2013-02-09 01:45:00,
2013-02-08 17:50:00,52.8,34.7,29.87,South,178,0.0,2.0,50,0.00,,,0.06,0,WeatherCatV1.12B45,2013-02-09 01:50:00,
2013-02-08 17:55:00,52.6,35.5,29.87,SSW,196,0.0,2.0,52,0.00,,,0.06,0,WeatherCatV1.12B45,2013-02-09 01:55:00,
2013-02-08 18:00:00,52.5,35.4,29.87,WNW,302,3.0,3.0,52,0.00,,,0.06,0,WeatherCatV1.12B45,2013-02-09 02:00:00,
2013-02-08 18:05:00,52.2,36.1,29.87,South,186,0.0,1.0,54,0.00,,,0.06,0,WeatherCatV1.12B45,2013-02-09 02:05:00,
2013-02-08 18:10:00,51.9,37.2,29.87,SSW,213,0.0,3.0,57,0.00,,,0.06,0,WeatherCatV1.12B45,2013-02-09 02:10:00,
2013-02-08 18:15:00,51.6,37.3,29.88,SW,215,0.0,1.0,58,0.00,,,0.06,0,WeatherCatV1.12B45,2013-02-09 02:15:00,
2013-02-08 18:25:00,51.1,36.8,29.88,North,356,1.0,2.0,58,0.00,,,0.06,0,WeatherCatV1.12B45,2013-02-09 02:25:00,
2013-02-08 18:30:00,50.8,37.8,29.88,North,357,0.0,0.0,61,0.00,,,0.06,0,WeatherCatV1.12B45,2013-02-09 02:30:00,
2013-02-08 18:35:00,50.5,37.6,29.88,North,357,0.0,3.0,61,0.00,,,0.06,0,WeatherCatV1.12B45,2013-02-09 02:35:00,
2013-02-08 18:40:00,50.2,37.7,29.88,SSW,200,0.0,0.0,62,0.00,,,0.06,0,WeatherCatV1.12B45,2013-02-09 02:40:00,
2013-02-08 18:45:00,50.2,38.1,29.88,North,357,0.0,1.0,63,0.00,,,0.06,0,WeatherCatV1.12B45,2013-02-09 02:45:00,
2013-02-08 18:50:00,49.9,37.8,29.88,North,0,0.0,1.0,63,0.00,,,0.06,0,WeatherCatV1.12B45,2013-02-09 02:50:00,
2013-02-08 18:55:00,49.8,37.7,29.88,North,0,0.0,1.0,63,0.00,,,0.06,0,WeatherCatV1.12B45,2013-02-09 02:55:00,
2013-02-08 19:00:00,49.6,37.5,29.88,SSW,210,0.0,0.0,63,0.00,,,0.06,0,WeatherCatV1.12B45,2013-02-09 03:00:00,
2013-02-08 19:05:00,49.5,37.0,29.88,North,0,0.0,0.0,62,0.00,,,0.06,0,WeatherCatV1.12B45,2013-02-09 03:05:00,
2013-02-08 19:10:00,49.2,36.7,29.88,North,357,0.0,0.0,62,0.00,,,0.06,0,WeatherCatV1.12B45,2013-02-09 03:10:00,
2013-02-08 19:15:00,49.1,36.6,29.89,North,357,0.0,0.0,62,0.00,,,0.06,0,WeatherCatV1.12B45,2013-02-09 03:15:00,
2013-02-08 19:20:00,48.8,36.8,29.89,North,357,0.0,0.0,63,0.00,,,0.06,0,WeatherCatV1.12B45,2013-02-09 03:20:00,
2013-02-08 19:25:00,48.6,36.6,29.89,North,357,0.0,0.0,63,0.00,,,0.06,0,WeatherCatV1.12B45,2013-02-09 03:25:00,
2013-02-08 19:30:00,48.3,36.3,29.89,North,0,0.0,0.0,63,0.00,,,0.06,0,WeatherCatV1.12B45,2013-02-09 03:30:00,
2013-02-08 19:35:00,48.2,37.8,29.89,North,0,0.0,0.0,67,0.00,,,0.06,0,WeatherCatV1.12B45,2013-02-09 03:35:00,
2013-02-08 19:40:00,47.6,37.2,29.89,North,357,0.0,0.0,67,0.00,,,0.06,0,WeatherCatV1.12B45,2013-02-09 03:40:00,
2013-02-08 19:45:00,47.1,36.7,29.90,North,0,0.0,0.0,67,0.00,,,0.06,0,WeatherCatV1.12B45,2013-02-09 03:45:00,
2013-02-08 19:50:00,46.7,36.7,29.90,North,0,0.0,0.0,68,0.00,,,0.06,0,WeatherCatV1.12B45,2013-02-09 03:50:00,
2013-02-08 19:55:00,46.5,36.5,29.90,North,0,1.0,2.0,68,0.00,,,0.06,0,WeatherCatV1.12B45,2013-02-09 03:55:00,
2013-02-08 20:00:00,46.5,36.1,29.90,North,357,0.0,0.0,67,0.00,,,0.06,0,WeatherCatV1.12B45,2013-02-09 04:00:00,
2013-02-08 20:05:00,46.5,36.1,29.90,North,0,0.0,0.0,67,0.00,,,0.06,0,WeatherCatV1.12B45,2013-02-09 04:05:00,
2013-02-08 20:10:00,46.4,36.0,29.90,North,0,0.0,0.0,67,0.00,,,0.06,0,WeatherCatV1.12B45,2013-02-09 04:10:00,
2013-02-08 20:15:00,46.2,35.9,29.90,North,0,0.0,0.0,67,0.00,,,0.06,0,WeatherCatV1.12B45,2013-02-09 04:15:00,
2013-02-08 20:20:00,46.2,35.5,29.90,North,0,0.0,0.0,66,0.00,,,0.06,0,WeatherCatV1.12B45,2013-02-09 04:20:00,
2013-02-08 20:25:00,46.4,35.7,29.90,North,357,0.0,0.0,66,0.00,,,0.06,0,WeatherCatV1.12B45,2013-02-09 04:25:00,
2013-02-08 20:30:00,46.5,35.4,29.90,North,357,0.0,0.0,65,0.00,,,0.06,0,WeatherCatV1.12B45,2013-02-09 04:30:00,
2013-02-08 20:40:00,46.8,35.7,29.90,North,356,0.0,0.0,65,0.00,,,0.06,0,WeatherCatV1.12B45,2013-02-09 04:40:00,
2013-02-08 20:45:00,47.3,35.3,29.90,North,0,0.0,0.0,63,0.00,,,0.06,0,WeatherCatV1.12B45,2013-02-09 04:45:00,
2013-02-08 20:50:00,47.6,34.8,29.90,NNW,346,0.0,1.0,61,0.00,,,0.06,0,WeatherCatV1.12B45,2013-02-09 04:50:00,
2013-02-08 20:55:00,47.7,34.9,29.90,NNW,344,0.0,0.0,61,0.00,,,0.06,0,WeatherCatV1.12B45,2013-02-09 04:55:00,
2013-02-08 21:05:00,47.9,35.9,29.90,WSW,239,0.0,0.0,63,0.00,,,0.06,0,WeatherCatV1.12B45,2013-02-09 05:05:00,
2013-02-08 21:10:00,47.7,35.7,29.90,SSE,162,0.0,2.0,63,0.00,,,0.06,0,WeatherCatV1.12B45,2013-02-09 05:10:00,
2013-02-08 21:15:00,47.9,35.9,29.90,SSE,168,0.0,0.0,63,0.00,,,0.06,0,WeatherCatV1.12B45,2013-02-09 05:15:00,
2013-02-08 21:20:00,47.9,35.9,29.90,South,175,0.0,0.0,63,0.00,,,0.06,0,WeatherCatV1.12B45,2013-02-09 05:20:00,
2013-02-08 21:25:00,47.6,35.6,29.90,South,185,0.0,0.0,63,0.00,,,0.06,0,WeatherCatV1.12B45,2013-02-09 05:25:00,
2013-02-08 21:30:00,47.4,35.4,29.91,SSW,198,0.0,0.0,63,0.00,,,0.06,0,WeatherCatV1.12B45,2013-02-09 05:30:00,
2013-02-08 21:35:00,46.0,34.1,29.91,North,357,0.0,0.0,63,0.00,,,0.06,0,WeatherCatV1.12B45,2013-02-09 05:35:00,
2013-02-08 21:40:00,45.5,34.4,29.91,North,354,0.0,0.0,65,0.00,,,0.06,0,WeatherCatV1.12B45,2013-02-09 05:40:00,
2013-02-08 21:45:00,45.4,34.3,29.91,North,349,0.0,0.0,65,0.00,,,0.06,0,WeatherCatV1.12B45,2013-02-09 05:45:00,
2013-02-08 21:50:00,45.4,34.3,29.91,North,353,0.0,1.0,65,0.00,,,0.06,0,WeatherCatV1.12B45,2013-02-09 05:50:00,
2013-02-08 21:55:00,44.9,33.9,29.91,North,354,0.0,0.0,65,0.00,,,0.06,0,WeatherCatV1.12B45,2013-02-09 05:55:00,
2013-02-08 22:00:00,44.6,33.2,29.91,North,353,0.0,0.0,64,0.00,,,0.06,0,WeatherCatV1.12B45,2013-02-09 06:00:00,
2013-02-08 22:05:00,44.6,32.0,29.91,NNW,347,0.0,0.0,61,0.00,,,0.06,0,WeatherCatV1.12B45,2013-02-09 06:05:00,
2013-02-08 22:10:00,44.6,32.0,29.91,NNW,347,0.0,0.0,61,0.00,,,0.06,0,WeatherCatV1.12B45,2013-02-09 06:10:00,
2013-02-08 22:15:00,44.9,31.0,29.90,SW,215,0.0,0.0,58,0.00,,,0.06,0,WeatherCatV1.12B45,2013-02-09 06:15:00,
2013-02-08 22:20:00,45.1,31.6,29.90,SW,216,0.0,0.0,59,0.00,,,0.06,0,WeatherCatV1.12B45,2013-02-09 06:20:00,
2013-02-08 22:25:00,45.1,31.6,29.90,WNW,287,0.0,0.0,59,0.00,,,0.06,0,WeatherCatV1.12B45,2013-02-09 06:25:00,
2013-02-08 22:30:00,45.2,30.0,29.90,WNW,291,0.0,1.0,55,0.00,,,0.06,0,WeatherCatV1.12B45,2013-02-09 06:30:00,
2013-02-08 22:35:00,45.8,28.7,29.90,South,188,0.0,0.0,51,0.00,,,0.06,0,WeatherCatV1.12B45,2013-02-09 06:35:00,
2013-02-08 22:40:00,46.8,29.6,29.90,North,356,0.0,0.0,51,0.00,,,0.06,0,WeatherCatV1.12B45,2013-02-09 06:40:00,
2013-02-08 22:45:00,47.6,30.4,29.90,West,268,2.0,2.0,51,0.00,,,0.06,0,WeatherCatV1.12B45,2013-02-09 06:45:00,
2013-02-08 22:50:00,47.9,27.0,29.90,NNW,344,0.0,0.0,44,0.00,,,0.06,0,WeatherCatV1.12B45,2013-02-09 06:50:00,
2013-02-08 22:55:00,47.9,25.9,29.90,NNW,344,0.0,0.0,42,0.00,,,0.06,0,WeatherCatV1.12B45,2013-02-09 06:55:00,
2013-02-08 23:00:00,47.6,28.9,29.90,NNW,343,0.0,0.0,48,0.00,,,0.06,0,WeatherCatV1.12B45,2013-02-09 07:00:00,
2013-02-08 23:05:00,47.0,28.3,29.90,NNW,347,0.0,0.0,48,0.00,,,0.06,0,WeatherCatV1.12B45,2013-02-09 07:05:00,
2013-02-08 23:10:00,46.4,27.8,29.90,NNW,344,0.0,0.0,48,0.00,,,0.06,0,WeatherCatV1.12B45,2013-02-09 07:10:00,
2013-02-08 23:15:00,45.8,30.6,29.90,North,349,0.0,0.0,55,0.00,,,0.06,0,WeatherCatV1.12B45,2013-02-09 07:15:00,
2013-02-08 23:20:00,45.5,29.8,29.90,SW,222,0.0,0.0,54,0.00,,,0.06,0,WeatherCatV1.12B45,2013-02-09 07:20:00,
2013-02-08 23:25:00,44.6,29.9,29.90,SW,234,0.0,0.0,56,0.00,,,0.06,0,WeatherCatV1.12B45,2013-02-09 07:25:00,
2013-02-08 23:30:00,44.2,30.4,29.90,SW,230,0.0,0.0,58,0.00,,,0.06,0,WeatherCatV1.12B45,2013-02-09 07:30:00,
2013-02-08 23:35:00,43.8,29.1,29.90,WNW,299,0.0,0.0,56,0.00,,,0.06,0,WeatherCatV1.12B45,2013-02-09 07:35:00,
2013-02-08 23:40:00,43.5,29.3,29.90,NW,306,0.0,1.0,57,0.00,,,0.06,0,WeatherCatV1.12B45,2013-02-09 07:40:00,
2013-02-08 23:45:00,43.3,29.1,29.91,WNW,299,0.0,0.0,57,0.00,,,0.06,0,WeatherCatV1.12B45,2013-02-09 07:45:00,
2013-02-08 23:50:00,43.1,29.3,29.91,WNW,299,0.0,0.0,58,0.00,,,0.06,0,WeatherCatV1.12B45,2013-02-09 07:50:00,
2013-02-08 23:55:00,42.8,29.5,29.91,WNW,301,0.0,0.0,59,0.00,,,0.06,0,WeatherCatV1.12B45,2013-02-09 07:55:00,